createdAt,value
2023-05-06T00:00:12.938Z,15.90
2023-05-06T00:02:42.239Z,15.80
2023-05-06T00:05:10.026Z,15.80
2023-05-06T00:07:37.503Z,15.90
2023-05-06T00:10:05.877Z,15.80
2023-05-06T00:12:33.299Z,15.90
2023-05-06T00:15:00.503Z,15.80
2023-05-06T00:17:27.775Z,15.80
2023-05-06T00:19:56.216Z,15.80
2023-05-06T00:22:23.324Z,15.80
2023-05-06T00:24:50.582Z,15.80
2023-05-06T00:27:17.709Z,15.80
2023-05-06T00:29:44.885Z,15.80
2023-05-06T00:32:11.988Z,15.70
2023-05-06T00:34:39.176Z,15.70
2023-05-06T00:37:06.372Z,15.70
2023-05-06T00:39:34.611Z,15.60
2023-05-06T00:42:02.480Z,15.60
2023-05-06T00:44:30.199Z,15.60
2023-05-06T00:47:01.215Z,15.50
2023-05-06T00:49:30.160Z,15.60
2023-05-06T00:51:59.101Z,15.50
2023-05-06T00:54:26.989Z,15.50
2023-05-06T00:56:54.501Z,15.50
2023-05-06T00:59:23.420Z,15.50
2023-05-06T01:01:52.311Z,15.50
2023-05-06T01:04:20.000Z,15.50
2023-05-06T01:07:08.662Z,15.50
2023-05-06T01:09:38.770Z,15.50
2023-05-06T01:12:14.567Z,15.50
2023-05-06T01:14:56.082Z,15.40
2023-05-06T01:17:30.751Z,15.40
2023-05-06T01:20:01.729Z,15.40
2023-05-06T01:22:30.625Z,15.30
2023-05-06T01:24:57.768Z,15.40
2023-05-06T01:27:25.182Z,15.30
2023-05-06T01:29:52.400Z,15.30
2023-05-06T01:32:58.368Z,15.30
2023-05-06T01:36:02.035Z,15.20
2023-05-06T01:38:41.172Z,15.20
2023-05-06T01:41:09.743Z,15.20
2023-05-06T01:43:42.144Z,15.10
2023-05-06T01:46:15.980Z,15.10
2023-05-06T01:48:45.509Z,15.00
2023-05-06T01:51:12.983Z,15.00
2023-05-06T01:53:40.626Z,15.00
2023-05-06T01:56:07.875Z,15.00
2023-05-06T01:58:35.295Z,15.00
2023-05-06T02:01:02.519Z,15.00
2023-05-06T02:03:29.950Z,14.90
2023-05-06T02:05:57.203Z,14.90
2023-05-06T02:08:26.651Z,14.90
2023-05-06T02:10:53.956Z,14.90
2023-05-06T02:13:22.258Z,14.90
2023-05-06T02:15:54.304Z,14.90
2023-05-06T02:18:22.740Z,14.90
2023-05-06T02:20:50.525Z,14.90
2023-05-06T02:23:17.940Z,14.80
2023-05-06T02:25:46.687Z,14.90
2023-05-06T02:28:13.875Z,14.90
2023-05-06T02:30:41.011Z,14.90
2023-05-06T02:33:08.265Z,14.90
2023-05-06T02:35:35.437Z,14.90
2023-05-06T02:38:02.641Z,14.90
2023-05-06T02:40:29.844Z,14.90
2023-05-06T02:42:57.065Z,14.90
2023-05-06T02:45:24.259Z,14.90
2023-05-06T02:47:51.442Z,14.90
2023-05-06T02:50:18.656Z,14.90
2023-05-06T02:52:45.904Z,14.90
2023-05-06T02:55:13.028Z,14.90
2023-05-06T02:57:40.290Z,14.90
2023-05-06T03:00:08.100Z,14.90
2023-05-06T03:02:36.241Z,14.90
2023-05-06T03:05:06.213Z,14.90
2023-05-06T03:07:34.942Z,14.80
2023-05-06T03:10:02.338Z,14.80
2023-05-06T03:12:33.439Z,14.80
2023-05-06T03:15:00.637Z,14.80
2023-05-06T03:17:28.364Z,14.80
2023-05-06T03:19:55.736Z,14.70
2023-05-06T03:22:23.277Z,14.70
2023-05-06T03:24:50.608Z,14.70
2023-05-06T03:27:18.021Z,14.70
2023-05-06T03:29:49.386Z,14.70
2023-05-06T03:32:17.969Z,14.70
2023-05-06T03:34:45.047Z,14.70
2023-05-06T03:37:16.933Z,14.70
2023-05-06T03:39:49.079Z,14.70
2023-05-06T03:42:17.553Z,14.70
2023-05-06T03:44:46.469Z,14.70
2023-05-06T03:47:13.851Z,14.70
2023-05-06T03:49:41.021Z,14.70
2023-05-06T03:52:08.419Z,14.70
2023-05-06T03:54:36.142Z,14.70
2023-05-06T03:57:05.453Z,14.70
2023-05-06T03:59:33.007Z,14.70
2023-05-06T04:02:02.376Z,14.70
2023-05-06T04:04:29.956Z,14.70
2023-05-06T04:06:57.166Z,14.70
2023-05-06T04:09:24.598Z,14.80
2023-05-06T04:11:52.916Z,14.70
2023-05-06T04:14:20.162Z,14.80
2023-05-06T04:16:47.720Z,14.80
2023-05-06T04:19:14.854Z,14.80
2023-05-06T04:21:42.034Z,14.80
2023-05-06T04:24:12.003Z,14.80
2023-05-06T04:26:42.448Z,14.80
2023-05-06T04:29:10.151Z,14.80
2023-05-06T04:31:44.785Z,14.80
2023-05-06T04:34:13.369Z,14.80
2023-05-06T04:36:41.117Z,14.90
2023-05-06T04:39:26.839Z,14.90
2023-05-06T04:41:54.505Z,14.90
2023-05-06T04:44:29.649Z,14.90
2023-05-06T04:46:57.857Z,14.90
2023-05-06T04:49:25.621Z,14.90
2023-05-06T04:51:53.011Z,14.90
2023-05-06T04:54:20.139Z,15.00
2023-05-06T04:56:47.297Z,15.00
2023-05-06T04:59:17.458Z,15.00
2023-05-06T05:01:46.206Z,15.00
2023-05-06T05:04:13.410Z,15.00
2023-05-06T05:06:40.905Z,15.00
2023-05-06T05:09:10.723Z,15.10
2023-05-06T05:11:40.627Z,15.10
2023-05-06T05:14:08.529Z,15.10
2023-05-06T05:16:36.027Z,15.10
2023-05-06T05:19:05.303Z,15.20
2023-05-06T05:21:34.230Z,15.20
2023-05-06T05:24:01.828Z,15.20
2023-05-06T05:26:30.019Z,15.30
2023-05-06T05:28:59.290Z,15.30
2023-05-06T05:31:26.585Z,15.30
2023-05-06T05:33:53.835Z,15.40
2023-05-06T05:36:23.543Z,15.40
2023-05-06T05:38:54.444Z,15.40
2023-05-06T05:41:25.597Z,15.40
2023-05-06T05:43:54.036Z,15.50
2023-05-06T05:46:22.001Z,15.50
2023-05-06T05:48:50.760Z,15.50
2023-05-06T05:51:20.460Z,15.50
2023-05-06T05:53:47.701Z,15.60
2023-05-06T05:56:16.841Z,15.60
2023-05-06T05:58:47.507Z,15.60
2023-05-06T06:01:15.245Z,15.60
2023-05-06T06:03:42.849Z,15.60
2023-05-06T06:06:10.176Z,15.70
2023-05-06T06:08:37.695Z,15.70
2023-05-06T06:11:05.887Z,15.70
2023-05-06T06:13:38.414Z,15.80
2023-05-06T06:16:06.246Z,15.80
2023-05-06T06:18:34.321Z,15.80
2023-05-06T06:21:01.505Z,15.80
2023-05-06T06:23:29.008Z,15.80
2023-05-06T06:25:56.152Z,15.90
2023-05-06T06:28:23.552Z,15.90
2023-05-06T06:30:50.908Z,15.90
2023-05-06T06:33:18.106Z,16.00
2023-05-06T06:35:45.558Z,16.00
2023-05-06T06:38:12.752Z,16.00
2023-05-06T06:40:39.984Z,16.00
2023-05-06T06:43:07.165Z,16.10
2023-05-06T06:45:47.755Z,16.20
2023-05-06T06:48:15.489Z,16.20
2023-05-06T06:50:43.123Z,16.40
2023-05-06T06:53:10.979Z,16.50
2023-05-06T06:55:38.257Z,16.60
2023-05-06T06:58:05.552Z,16.70
2023-05-06T07:00:32.695Z,16.80
2023-05-06T07:02:59.876Z,16.80
2023-05-06T07:05:27.334Z,17.00
2023-05-06T07:07:55.664Z,17.10
2023-05-06T07:10:23.192Z,17.20
2023-05-06T07:12:50.313Z,17.30
2023-05-06T07:15:17.471Z,17.30
2023-05-06T07:17:44.762Z,17.40
2023-05-06T07:20:12.661Z,17.40
2023-05-06T07:22:41.386Z,17.50
2023-05-06T07:25:09.121Z,17.50
2023-05-06T07:27:36.822Z,17.50
2023-05-06T07:30:04.278Z,17.60
2023-05-06T07:32:31.489Z,17.60
2023-05-06T07:34:58.856Z,17.60
2023-05-06T07:37:26.022Z,17.70
2023-05-06T07:39:53.197Z,17.80
2023-05-06T07:42:20.402Z,17.80
2023-05-06T07:44:47.553Z,17.90
2023-05-06T07:47:26.285Z,17.90
2023-05-06T07:49:53.664Z,18.00
2023-05-06T07:52:20.933Z,18.00
2023-05-06T07:54:48.001Z,18.10
2023-05-06T07:57:16.617Z,18.10
2023-05-06T07:59:44.607Z,18.20
2023-05-06T08:02:11.766Z,18.20
2023-05-06T08:04:39.134Z,18.30
2023-05-06T08:07:07.022Z,18.30
2023-05-06T08:09:34.149Z,18.30
2023-05-06T08:12:01.299Z,18.40
2023-05-06T08:14:28.862Z,18.40
2023-05-06T08:16:56.147Z,18.40
2023-05-06T08:19:23.405Z,18.50
2023-05-06T08:21:50.629Z,18.50
2023-05-06T08:24:17.724Z,18.60
2023-05-06T08:26:44.912Z,18.60
2023-05-06T08:29:12.082Z,18.70
2023-05-06T08:31:39.166Z,18.80
2023-05-06T08:34:06.470Z,18.80
2023-05-06T08:36:33.704Z,18.90
2023-05-06T08:39:01.006Z,18.90
2023-05-06T08:41:30.572Z,19.00
2023-05-06T08:43:58.705Z,19.10
2023-05-06T08:46:27.639Z,19.10
2023-05-06T08:48:54.856Z,19.20
2023-05-06T08:51:28.931Z,19.30
2023-05-06T08:53:59.424Z,19.40
2023-05-06T08:56:29.670Z,19.50
2023-05-06T08:58:58.523Z,19.70
2023-05-06T09:01:29.201Z,19.80
2023-05-06T09:03:58.254Z,19.90
2023-05-06T09:06:25.573Z,20.00
2023-05-06T09:08:52.708Z,20.20
2023-05-06T09:11:30.294Z,20.30
2023-05-06T09:14:17.167Z,20.40
2023-05-06T09:16:46.917Z,20.50
2023-05-06T09:19:14.918Z,20.60
2023-05-06T09:21:46.909Z,20.70
2023-05-06T09:24:15.490Z,20.80
2023-05-06T09:26:44.228Z,20.90
2023-05-06T09:29:11.589Z,21.00
2023-05-06T09:31:46.376Z,21.10
2023-05-06T09:34:14.526Z,21.20
2023-05-06T09:36:41.836Z,21.30
2023-05-06T09:39:10.195Z,21.30
2023-05-06T09:41:37.572Z,21.40
2023-05-06T09:44:05.781Z,21.40
2023-05-06T09:46:33.173Z,21.50
2023-05-06T09:49:01.653Z,21.60
2023-05-06T09:51:31.088Z,21.60
2023-05-06T09:53:59.406Z,21.70
2023-05-06T09:56:27.003Z,21.80
2023-05-06T09:58:55.857Z,21.80
2023-05-06T10:01:35.367Z,21.90
2023-05-06T10:04:10.175Z,22.00
2023-05-06T10:06:40.768Z,22.10
2023-05-06T10:09:09.322Z,22.10
2023-05-06T10:11:36.865Z,22.20
2023-05-06T10:14:04.593Z,22.30
2023-05-06T10:16:33.926Z,22.30
2023-05-06T10:19:03.945Z,22.40
2023-05-06T10:21:34.566Z,22.40
2023-05-06T10:24:07.181Z,22.40
2023-05-06T10:26:37.681Z,22.30
2023-05-06T10:29:09.401Z,22.30
2023-05-06T10:31:44.672Z,22.20
2023-05-06T10:34:11.848Z,22.10
2023-05-06T10:36:40.703Z,22.10
2023-05-06T10:39:10.300Z,22.00
2023-05-06T10:41:37.877Z,22.00
2023-05-06T10:44:06.201Z,22.00
2023-05-06T10:47:00.630Z,22.00
2023-05-06T10:49:29.242Z,22.00
2023-05-06T10:52:15.164Z,22.10
2023-05-06T10:54:52.221Z,22.10
2023-05-06T10:57:22.703Z,22.10
2023-05-06T10:59:49.947Z,22.10
2023-05-06T11:02:20.928Z,22.10
2023-05-06T11:04:59.671Z,22.10
2023-05-06T11:07:27.345Z,22.10
2023-05-06T11:10:01.948Z,22.20
2023-05-06T11:13:19.440Z,22.20
2023-05-06T11:15:47.446Z,22.30
2023-05-06T11:18:26.987Z,22.30
2023-05-06T11:21:04.966Z,22.40
2023-05-06T11:23:47.250Z,22.40
2023-05-06T11:26:14.399Z,22.50
2023-05-06T11:28:47.123Z,22.50
2023-05-06T11:31:14.844Z,22.50
2023-05-06T11:33:47.156Z,22.50
2023-05-06T11:36:18.050Z,22.60
2023-05-06T11:38:56.373Z,22.60
2023-05-06T11:41:23.610Z,22.60
2023-05-06T11:43:52.818Z,22.70
2023-05-06T11:46:21.388Z,22.70
2023-05-06T11:48:49.252Z,22.70
2023-05-06T11:51:21.671Z,22.70
2023-05-06T11:53:48.751Z,22.60
2023-05-06T11:56:15.899Z,22.60
2023-05-06T11:58:46.839Z,22.60
2023-05-06T12:01:13.997Z,22.50
2023-05-06T12:03:41.249Z,22.50
2023-05-06T12:06:08.452Z,22.40
2023-05-06T12:08:36.414Z,22.40
2023-05-06T12:11:06.432Z,22.30
2023-05-06T12:13:36.963Z,22.30
2023-05-06T12:16:05.926Z,22.40
2023-05-06T12:18:33.775Z,22.40
2023-05-06T12:21:04.325Z,22.50
2023-05-06T12:23:31.838Z,22.50
2023-05-06T12:26:04.148Z,22.50
2023-05-06T12:28:33.150Z,22.50
2023-05-06T12:31:01.382Z,22.50
2023-05-06T12:33:45.237Z,22.60
2023-05-06T12:36:12.427Z,22.60
2023-05-06T12:38:39.713Z,22.60
2023-05-06T12:41:09.955Z,22.60
2023-05-06T12:43:37.097Z,22.60
2023-05-06T12:46:08.986Z,22.50
2023-05-06T12:48:36.435Z,22.50
2023-05-06T12:51:22.188Z,22.40
2023-05-06T12:53:49.405Z,22.40
2023-05-06T12:56:16.672Z,22.30
2023-05-06T12:58:43.807Z,22.30
2023-05-06T13:01:10.993Z,22.10
2023-05-06T13:03:41.083Z,22.00
2023-05-06T13:06:08.473Z,21.90
2023-05-06T13:08:38.260Z,21.70
2023-05-06T13:11:05.467Z,21.50
2023-05-06T13:13:32.602Z,21.30
2023-05-06T13:15:59.825Z,21.10
2023-05-06T13:18:29.303Z,20.90
2023-05-06T13:20:56.895Z,20.60
2023-05-06T13:23:24.093Z,20.40
2023-05-06T13:26:03.473Z,20.20
2023-05-06T13:28:33.262Z,20.00
2023-05-06T13:31:00.430Z,19.80
2023-05-06T13:33:27.606Z,19.70
2023-05-06T13:35:54.757Z,19.60
2023-05-06T13:38:22.241Z,19.50
2023-05-06T13:40:54.105Z,19.40
2023-05-06T13:43:22.375Z,19.30
2023-05-06T13:45:49.527Z,19.30
2023-05-06T13:48:17.885Z,19.20
2023-05-06T13:50:46.565Z,19.20
2023-05-06T13:53:14.669Z,19.20
2023-05-06T13:55:42.911Z,19.10
2023-05-06T13:58:11.089Z,19.10
2023-05-06T14:00:38.455Z,19.10
2023-05-06T14:03:05.810Z,19.10
2023-05-06T14:05:33.147Z,19.20
2023-05-06T14:08:00.485Z,19.20
2023-05-06T14:10:27.651Z,19.20
2023-05-06T14:12:57.626Z,19.20
2023-05-06T14:15:24.748Z,19.30
2023-05-06T14:17:52.137Z,19.40
2023-05-06T14:20:19.308Z,19.50
2023-05-06T14:22:46.477Z,19.50
2023-05-06T14:25:14.057Z,19.70
2023-05-06T14:27:41.472Z,19.70
2023-05-06T14:30:09.802Z,19.80
2023-05-06T14:32:37.511Z,19.90
2023-05-06T14:35:05.206Z,20.00
2023-05-06T14:37:32.373Z,20.10
2023-05-06T14:39:59.550Z,20.10
2023-05-06T14:42:26.844Z,20.20
2023-05-06T14:44:54.333Z,20.30
2023-05-06T14:47:23.740Z,20.50
2023-05-06T14:49:50.940Z,20.60
2023-05-06T14:52:18.140Z,20.80
2023-05-06T14:54:45.435Z,21.00
2023-05-06T14:57:12.740Z,21.10
2023-05-06T14:59:39.920Z,21.30
2023-05-06T15:02:09.312Z,21.30
2023-05-06T15:04:37.145Z,21.40
2023-05-06T15:07:04.559Z,21.50
2023-05-06T15:09:31.742Z,21.60
2023-05-06T15:11:59.017Z,21.70
2023-05-06T15:14:26.416Z,21.90
2023-05-06T15:16:57.229Z,22.00
2023-05-06T15:19:24.806Z,22.20
2023-05-06T15:21:51.977Z,22.30
2023-05-06T15:24:19.114Z,22.40
2023-05-06T15:26:46.591Z,22.50
2023-05-06T15:29:13.752Z,22.50
2023-05-06T15:31:43.683Z,22.60
2023-05-06T15:34:12.147Z,22.60
2023-05-06T15:36:41.441Z,22.60
2023-05-06T15:39:08.843Z,22.70
2023-05-06T15:41:38.118Z,22.80
2023-05-06T15:44:06.384Z,22.90
2023-05-06T15:46:34.108Z,23.00
2023-05-06T15:51:31.744Z,23.00
2023-05-06T15:53:58.928Z,22.90
2023-05-06T15:56:27.030Z,22.90
2023-05-06T15:58:55.748Z,22.80
2023-05-06T16:01:45.010Z,22.60
2023-05-06T16:04:10.360Z,22.50
2023-05-06T16:06:37.576Z,22.30
2023-05-06T16:09:09.037Z,22.10
2023-05-06T16:11:36.193Z,22.00
2023-05-06T16:14:03.729Z,21.90
2023-05-06T16:16:31.096Z,21.70
2023-05-06T16:18:58.329Z,21.60
2023-05-06T16:21:25.527Z,21.50
2023-05-06T16:23:52.804Z,21.40
2023-05-06T16:26:19.980Z,21.40
2023-05-06T16:28:47.163Z,21.30
2023-05-06T16:31:14.313Z,21.30
2023-05-06T16:33:41.428Z,21.20
2023-05-06T16:36:08.966Z,21.10
2023-05-06T16:38:37.020Z,21.10
2023-05-06T16:41:04.456Z,21.10
2023-05-06T16:43:31.672Z,21.00
2023-05-06T16:45:58.766Z,20.90
2023-05-06T16:48:26.260Z,20.90
2023-05-06T16:50:53.523Z,20.80
2023-05-06T16:53:20.962Z,20.80
2023-05-06T16:55:49.130Z,20.70
2023-05-06T16:58:16.569Z,20.60
2023-05-06T17:00:44.041Z,20.60
2023-05-06T17:03:11.877Z,20.50
2023-05-06T17:05:39.925Z,20.50
2023-05-06T17:08:07.446Z,20.40
2023-05-06T17:10:35.037Z,20.30
2023-05-06T17:13:02.463Z,20.30
2023-05-06T17:15:29.705Z,20.20
2023-05-06T17:17:57.228Z,20.10
2023-05-06T17:20:25.327Z,20.10
2023-05-06T17:22:52.621Z,20.00
2023-05-06T17:25:19.936Z,20.00
2023-05-06T17:27:47.256Z,19.90
2023-05-06T17:30:15.904Z,19.80
2023-05-06T17:32:43.268Z,19.80
2023-05-06T17:35:10.809Z,19.70
2023-05-06T17:37:39.319Z,19.70
2023-05-06T17:40:07.794Z,19.60
2023-05-06T17:42:36.063Z,19.60
2023-05-06T17:45:03.446Z,19.50
2023-05-06T17:47:30.947Z,19.50
2023-05-06T17:49:58.646Z,19.50
2023-05-06T17:52:26.725Z,19.40
2023-05-06T17:55:06.266Z,19.40
2023-05-06T17:57:39.069Z,19.30
2023-05-06T18:00:08.000Z,19.30
2023-05-06T18:02:39.066Z,19.30
2023-05-06T18:05:06.747Z,19.20
2023-05-06T18:07:35.811Z,19.10
2023-05-06T18:10:02.977Z,19.10
2023-05-06T18:12:31.112Z,19.10
2023-05-06T18:14:58.679Z,19.10
2023-05-06T18:17:27.275Z,19.00
2023-05-06T18:19:55.923Z,19.00
2023-05-06T18:22:23.153Z,19.00
2023-05-06T18:25:07.245Z,19.00
2023-05-06T18:27:34.580Z,18.90
2023-05-06T18:30:02.928Z,18.90
2023-05-06T18:32:32.241Z,18.90
2023-05-06T18:34:59.731Z,18.90
2023-05-06T18:37:29.854Z,18.90
2023-05-06T18:39:57.155Z,18.80
2023-05-06T18:42:24.414Z,18.80
2023-05-06T18:44:51.532Z,18.80
2023-05-06T18:47:19.874Z,18.80
2023-05-06T18:49:47.004Z,18.80
2023-05-06T18:52:15.375Z,18.70
2023-05-06T18:54:42.452Z,18.70
2023-05-06T18:57:10.473Z,18.60
2023-05-06T18:59:37.617Z,18.60
2023-05-06T19:02:05.860Z,18.60
2023-05-06T19:04:33.791Z,18.50
2023-05-06T19:07:01.477Z,18.50
2023-05-06T19:09:29.067Z,18.40
2023-05-06T19:11:56.305Z,18.40
2023-05-06T19:14:24.924Z,18.30
2023-05-06T19:16:53.964Z,18.30
2023-05-06T19:19:21.338Z,18.20
2023-05-06T19:21:48.734Z,18.20
2023-05-06T19:24:16.174Z,18.10
2023-05-06T19:26:44.431Z,18.10
2023-05-06T19:29:11.761Z,18.00
2023-05-06T19:31:38.981Z,18.00
2023-05-06T19:34:06.502Z,18.00
2023-05-06T19:36:33.672Z,17.90
2023-05-06T19:39:00.899Z,17.80
2023-05-06T19:41:28.734Z,17.80
2023-05-06T19:43:55.820Z,17.80
2023-05-06T19:46:25.655Z,17.70
2023-05-06T19:48:53.169Z,17.70
2023-05-06T19:51:20.539Z,17.60
2023-05-06T19:53:49.133Z,17.60
2023-05-06T19:56:17.257Z,17.60
2023-05-06T19:58:44.614Z,17.50
2023-05-06T20:01:12.532Z,17.50
2023-05-06T20:03:40.010Z,17.40
2023-05-06T20:06:07.256Z,17.40
2023-05-06T20:08:35.487Z,17.40
2023-05-06T20:11:02.910Z,17.30
2023-05-06T20:13:30.210Z,17.30
2023-05-06T20:15:57.533Z,17.30
2023-05-06T20:18:25.358Z,17.20
2023-05-06T20:20:52.441Z,17.20
2023-05-06T20:23:19.568Z,17.20
2023-05-06T20:25:46.662Z,17.10
2023-05-06T20:28:13.835Z,17.10
2023-05-06T20:30:41.067Z,17.10
2023-05-06T20:33:08.395Z,17.00
2023-05-06T20:35:38.600Z,17.00
2023-05-06T20:38:06.617Z,17.00
2023-05-06T20:40:35.959Z,16.90
2023-05-06T20:43:03.257Z,16.90
2023-05-06T20:45:31.575Z,16.90
2023-05-06T20:47:59.071Z,16.80
2023-05-06T20:50:26.501Z,16.80
2023-05-06T20:52:54.600Z,16.80
2023-05-06T20:55:23.537Z,16.80
2023-05-06T20:57:51.035Z,16.70
2023-05-06T21:00:19.447Z,16.70
2023-05-06T21:02:46.623Z,16.70
2023-05-06T21:05:14.119Z,16.60
2023-05-06T21:07:41.520Z,16.60
2023-05-06T21:10:11.111Z,16.60
2023-05-06T21:12:38.675Z,16.50
2023-05-06T21:15:06.509Z,16.50
2023-05-06T21:17:33.998Z,16.50
2023-05-06T21:20:01.751Z,16.40
2023-05-06T21:22:30.064Z,16.40
2023-05-06T21:24:57.103Z,16.40
2023-05-06T21:27:24.316Z,16.40
2023-05-06T21:29:51.708Z,16.30
2023-05-06T21:32:18.981Z,16.30
2023-05-06T21:34:46.228Z,16.30
2023-05-06T21:37:13.424Z,16.30
2023-05-06T21:39:40.867Z,16.20
2023-05-06T21:42:08.045Z,16.20
2023-05-06T21:44:35.207Z,16.20
2023-05-06T21:47:02.395Z,16.10
2023-05-06T21:49:29.534Z,16.10
2023-05-06T21:51:56.700Z,16.10
2023-05-06T21:54:24.767Z,16.00
2023-05-06T21:56:51.937Z,16.00
2023-05-06T21:59:19.928Z,16.00
2023-05-06T22:01:47.077Z,16.00
2023-05-06T22:04:16.856Z,15.90
2023-05-06T22:06:44.218Z,15.90
2023-05-06T22:09:12.155Z,15.90
2023-05-06T22:11:39.251Z,15.80
2023-05-06T22:14:06.970Z,15.80
2023-05-06T22:16:35.826Z,15.80
2023-05-06T22:19:04.797Z,15.80
2023-05-06T22:21:33.809Z,15.70
2023-05-06T22:24:01.302Z,15.70
2023-05-06T22:26:28.657Z,15.70
2023-05-06T22:28:56.621Z,15.70
2023-05-06T22:31:24.893Z,15.60
2023-05-06T22:33:55.558Z,15.60
2023-05-06T22:36:23.200Z,15.60
2023-05-06T22:38:50.299Z,15.60
2023-05-06T22:41:18.427Z,15.60
2023-05-06T22:43:45.842Z,15.60
2023-05-06T22:46:13.113Z,15.50
2023-05-06T22:48:40.597Z,15.50
2023-05-06T22:51:07.897Z,15.50
2023-05-06T22:53:35.027Z,15.50
2023-05-06T22:56:02.201Z,15.50
2023-05-06T22:58:30.054Z,15.40
2023-05-06T23:00:57.736Z,15.40
2023-05-06T23:03:25.167Z,15.40
2023-05-06T23:05:52.284Z,15.40
2023-05-06T23:08:19.427Z,15.40
2023-05-06T23:10:47.194Z,15.40
2023-05-06T23:13:14.396Z,15.40
2023-05-06T23:15:41.504Z,15.40
2023-05-06T23:18:08.832Z,15.30
2023-05-06T23:20:35.965Z,15.30
2023-05-06T23:23:03.198Z,15.30
2023-05-06T23:25:30.300Z,15.20
2023-05-06T23:27:57.450Z,15.20
2023-05-06T23:30:24.647Z,15.20
2023-05-06T23:32:51.817Z,15.20
2023-05-06T23:35:19.010Z,15.20
2023-05-06T23:37:46.197Z,15.20
2023-05-06T23:40:14.077Z,15.10
2023-05-06T23:42:41.551Z,15.10
2023-05-06T23:45:09.601Z,15.10
2023-05-06T23:47:36.980Z,15.10
2023-05-06T23:50:04.348Z,15.00
2023-05-06T23:52:31.542Z,15.00
2023-05-06T23:54:58.641Z,15.00
2023-05-06T23:57:25.869Z,15.00
2023-05-06T23:59:52.980Z,15.00
